sensor_id;sensor_type;location;lat;lon;timestamp;P1;durP1;ratioP1;P2;durP2;ratioP2
39156;SDS011;24889;42.424;25.604;2023-06-01T00:01:28;9.23;;;4.87;;
39156;SDS011;24889;42.424;25.604;2023-06-01T00:03:58;8.15;;;4.70;;
39156;SDS011;24889;42.424;25.604;2023-06-01T00:06:24;7.18;;;4.20;;
39156;SDS011;24889;42.424;25.604;2023-06-01T00:08:53;10.60;;;4.70;;
39156;SDS011;24889;42.424;25.604;2023-06-01T00:13:46;6.50;;;3.90;;
39156;SDS011;24889;42.424;25.604;2023-06-01T00:16:11;7.47;;;4.03;;
39156;SDS011;24889;42.424;25.604;2023-06-01T00:18:37;8.35;;;4.38;;
39156;SDS011;24889;42.424;25.604;2023-06-01T00:21:03;14.60;;;4.53;;
39156;SDS011;24889;42.424;25.604;2023-06-01T00:23:28;10.17;;;4.90;;
39156;SDS011;24889;42.424;25.604;2023-06-01T00:25:54;5.23;;;4.20;;
39156;SDS011;24889;42.424;25.604;2023-06-01T00:28:19;9.60;;;4.70;;
39156;SDS011;24889;42.424;25.604;2023-06-01T00:30:45;6.13;;;4.13;;
39156;SDS011;24889;42.424;25.604;2023-06-01T00:33:10;12.60;;;4.33;;
39156;SDS011;24889;42.424;25.604;2023-06-01T00:35:36;6.27;;;4.13;;
39156;SDS011;24889;42.424;25.604;2023-06-01T00:38:01;7.60;;;4.47;;
39156;SDS011;24889;42.424;25.604;2023-06-01T00:40:27;16.60;;;4.57;;
39156;SDS011;24889;42.424;25.604;2023-06-01T00:42:52;9.07;;;4.67;;
39156;SDS011;24889;42.424;25.604;2023-06-01T00:45:18;7.23;;;4.30;;
39156;SDS011;24889;42.424;25.604;2023-06-01T00:47:43;6.27;;;4.57;;
39156;SDS011;24889;42.424;25.604;2023-06-01T00:50:10;7.63;;;4.60;;
39156;SDS011;24889;42.424;25.604;2023-06-01T00:52:36;9.85;;;5.05;;
39156;SDS011;24889;42.424;25.604;2023-06-01T00:55:04;7.15;;;4.97;;
39156;SDS011;24889;42.424;25.604;2023-06-01T00:57:30;11.57;;;4.30;;
39156;SDS011;24889;42.424;25.604;2023-06-01T00:59:55;5.93;;;4.27;;
39156;SDS011;24889;42.424;25.604;2023-06-01T01:02:22;7.63;;;4.45;;
39156;SDS011;24889;42.424;25.604;2023-06-01T01:04:48;8.57;;;4.70;;
39156;SDS011;24889;42.424;25.604;2023-06-01T01:07:35;9.98;;;5.20;;
39156;SDS011;24889;42.424;25.604;2023-06-01T01:12:54;8.32;;;4.22;;
39156;SDS011;24889;42.424;25.604;2023-06-01T01:18:15;7.97;;;5.28;;
39156;SDS011;24889;42.424;25.604;2023-06-01T01:20:46;8.57;;;4.37;;
39156;SDS011;24889;42.424;25.604;2023-06-01T01:26:22;7.53;;;4.30;;
39156;SDS011;24889;42.424;25.604;2023-06-01T01:29:00;13.52;;;5.13;;
39156;SDS011;24889;42.424;25.604;2023-06-01T01:31:31;10.98;;;4.43;;
39156;SDS011;24889;42.424;25.604;2023-06-01T01:33:58;11.70;;;4.70;;
39156;SDS011;24889;42.424;25.604;2023-06-01T01:36:26;7.53;;;4.60;;
39156;SDS011;24889;42.424;25.604;2023-06-01T01:38:52;8.68;;;4.88;;
39156;SDS011;24889;42.424;25.604;2023-06-01T01:41:18;7.97;;;4.82;;
39156;SDS011;24889;42.424;25.604;2023-06-01T01:43:44;7.05;;;4.75;;
39156;SDS011;24889;42.424;25.604;2023-06-01T01:46:23;11.60;;;5.03;;
39156;SDS011;24889;42.424;25.604;2023-06-01T01:51:46;8.10;;;4.57;;
39156;SDS011;24889;42.424;25.604;2023-06-01T01:54:17;8.13;;;4.90;;
39156;SDS011;24889;42.424;25.604;2023-06-01T01:56:44;6.82;;;5.10;;
39156;SDS011;24889;42.424;25.604;2023-06-01T01:59:12;5.97;;;4.20;;
39156;SDS011;24889;42.424;25.604;2023-06-01T02:01:38;11.50;;;4.28;;
39156;SDS011;24889;42.424;25.604;2023-06-01T02:04:09;8.38;;;4.28;;
39156;SDS011;24889;42.424;25.604;2023-06-01T02:06:35;10.63;;;4.80;;
39156;SDS011;24889;42.424;25.604;2023-06-01T02:09:01;7.38;;;3.92;;
39156;SDS011;24889;42.424;25.604;2023-06-01T02:11:31;8.82;;;4.78;;
39156;SDS011;24889;42.424;25.604;2023-06-01T02:13:57;8.30;;;4.15;;
39156;SDS011;24889;42.424;25.604;2023-06-01T02:16:23;6.87;;;4.03;;
39156;SDS011;24889;42.424;25.604;2023-06-01T02:18:48;6.40;;;4.03;;
39156;SDS011;24889;42.424;25.604;2023-06-01T02:21:14;9.68;;;4.50;;
39156;SDS011;24889;42.424;25.604;2023-06-01T02:23:40;6.43;;;4.10;;
39156;SDS011;24889;42.424;25.604;2023-06-01T02:26:07;8.95;;;4.18;;
39156;SDS011;24889;42.424;25.604;2023-06-01T02:28:33;21.17;;;5.07;;
39156;SDS011;24889;42.424;25.604;2023-06-01T02:31:04;9.63;;;3.97;;
39156;SDS011;24889;42.424;25.604;2023-06-01T02:33:30;7.43;;;4.63;;
39156;SDS011;24889;42.424;25.604;2023-06-01T02:35:56;7.90;;;4.40;;
39156;SDS011;24889;42.424;25.604;2023-06-01T02:38:21;10.00;;;4.73;;
39156;SDS011;24889;42.424;25.604;2023-06-01T02:40:47;6.90;;;4.13;;
39156;SDS011;24889;42.424;25.604;2023-06-01T02:43:12;7.23;;;4.90;;
39156;SDS011;24889;42.424;25.604;2023-06-01T02:45:38;8.83;;;4.27;;
39156;SDS011;24889;42.424;25.604;2023-06-01T02:48:03;6.73;;;4.33;;
39156;SDS011;24889;42.424;25.604;2023-06-01T02:50:29;6.38;;;4.40;;
39156;SDS011;24889;42.424;25.604;2023-06-01T02:52:55;8.95;;;4.18;;
39156;SDS011;24889;42.424;25.604;2023-06-01T02:55:20;7.67;;;4.30;;
39156;SDS011;24889;42.424;25.604;2023-06-01T02:57:46;12.03;;;4.87;;
39156;SDS011;24889;42.424;25.604;2023-06-01T03:00:11;10.97;;;5.13;;
39156;SDS011;24889;42.424;25.604;2023-06-01T03:02:46;8.45;;;5.03;;
39156;SDS011;24889;42.424;25.604;2023-06-01T03:05:12;10.50;;;4.65;;
39156;SDS011;24889;42.424;25.604;2023-06-01T03:07:42;6.93;;;4.28;;
39156;SDS011;24889;42.424;25.604;2023-06-01T03:10:08;10.20;;;4.53;;
39156;SDS011;24889;42.424;25.604;2023-06-01T03:12:34;12.68;;;4.20;;
39156;SDS011;24889;42.424;25.604;2023-06-01T03:15:00;6.00;;;3.65;;
39156;SDS011;24889;42.424;25.604;2023-06-01T03:17:25;7.53;;;4.40;;
39156;SDS011;24889;42.424;25.604;2023-06-01T03:19:51;5.20;;;3.63;;
39156;SDS011;24889;42.424;25.604;2023-06-01T03:22:16;7.07;;;3.95;;
39156;SDS011;24889;42.424;25.604;2023-06-01T03:24:42;8.30;;;4.60;;
39156;SDS011;24889;42.424;25.604;2023-06-01T03:27:09;9.57;;;4.15;;
39156;SDS011;24889;42.424;25.604;2023-06-01T03:29:36;7.20;;;4.65;;
39156;SDS011;24889;42.424;25.604;2023-06-01T03:32:02;9.07;;;3.97;;
39156;SDS011;24889;42.424;25.604;2023-06-01T03:34:27;6.28;;;4.20;;
39156;SDS011;24889;42.424;25.604;2023-06-01T03:36:53;8.18;;;3.63;;
39156;SDS011;24889;42.424;25.604;2023-06-01T03:39:19;12.77;;;4.43;;
39156;SDS011;24889;42.424;25.604;2023-06-01T03:41:44;9.37;;;4.67;;
39156;SDS011;24889;42.424;25.604;2023-06-01T03:44:10;5.78;;;3.58;;
39156;SDS011;24889;42.424;25.604;2023-06-01T03:46:36;7.25;;;4.28;;
39156;SDS011;24889;42.424;25.604;2023-06-01T03:49:02;10.07;;;4.38;;
39156;SDS011;24889;42.424;25.604;2023-06-01T03:51:29;7.25;;;3.85;;
39156;SDS011;24889;42.424;25.604;2023-06-01T03:53:55;4.72;;;3.80;;
39156;SDS011;24889;42.424;25.604;2023-06-01T03:56:21;7.47;;;3.90;;
39156;SDS011;24889;42.424;25.604;2023-06-01T03:58:47;5.30;;;3.72;;
39156;SDS011;24889;42.424;25.604;2023-06-01T04:01:13;8.52;;;4.07;;
39156;SDS011;24889;42.424;25.604;2023-06-01T04:03:42;9.07;;;4.22;;
39156;SDS011;24889;42.424;25.604;2023-06-01T04:06:08;7.70;;;4.32;;
39156;SDS011;24889;42.424;25.604;2023-06-01T04:08:39;6.40;;;4.10;;
39156;SDS011;24889;42.424;25.604;2023-06-01T04:11:13;5.35;;;3.88;;
39156;SDS011;24889;42.424;25.604;2023-06-01T04:13:42;8.52;;;4.05;;
39156;SDS011;24889;42.424;25.604;2023-06-01T04:16:08;6.53;;;3.83;;
39156;SDS011;24889;42.424;25.604;2023-06-01T04:18:34;5.53;;;3.92;;
39156;SDS011;24889;42.424;25.604;2023-06-01T04:21:00;9.40;;;4.32;;
39156;SDS011;24889;42.424;25.604;2023-06-01T04:23:26;6.60;;;3.90;;
39156;SDS011;24889;42.424;25.604;2023-06-01T04:25:51;11.57;;;4.10;;
39156;SDS011;24889;42.424;25.604;2023-06-01T04:28:17;9.13;;;4.43;;
39156;SDS011;24889;42.424;25.604;2023-06-01T04:30:43;8.23;;;4.00;;
39156;SDS011;24889;42.424;25.604;2023-06-01T04:33:12;11.07;;;4.30;;
39156;SDS011;24889;42.424;25.604;2023-06-01T04:35:38;6.47;;;4.53;;
39156;SDS011;24889;42.424;25.604;2023-06-01T04:38:04;10.07;;;4.55;;
39156;SDS011;24889;42.424;25.604;2023-06-01T04:40:30;8.27;;;4.93;;
39156;SDS011;24889;42.424;25.604;2023-06-01T04:42:55;14.15;;;3.65;;
39156;SDS011;24889;42.424;25.604;2023-06-01T04:45:23;5.78;;;3.80;;
39156;SDS011;24889;42.424;25.604;2023-06-01T04:47:50;7.57;;;4.43;;
39156;SDS011;24889;42.424;25.604;2023-06-01T04:50:16;6.28;;;3.80;;
39156;SDS011;24889;42.424;25.604;2023-06-01T04:52:42;7.00;;;4.22;;
39156;SDS011;24889;42.424;25.604;2023-06-01T04:55:08;5.90;;;3.97;;
39156;SDS011;24889;42.424;25.604;2023-06-01T04:57:35;8.50;;;4.03;;
39156;SDS011;24889;42.424;25.604;2023-06-01T05:00:04;7.75;;;4.40;;
39156;SDS011;24889;42.424;25.604;2023-06-01T05:02:37;9.35;;;3.85;;
39156;SDS011;24889;42.424;25.604;2023-06-01T05:05:04;8.70;;;5.22;;
39156;SDS011;24889;42.424;25.604;2023-06-01T05:07:30;18.58;;;6.75;;
39156;SDS011;24889;42.424;25.604;2023-06-01T05:09:56;21.30;;;7.72;;
39156;SDS011;24889;42.424;25.604;2023-06-01T05:12:22;14.27;;;6.68;;
39156;SDS011;24889;42.424;25.604;2023-06-01T05:14:47;15.38;;;7.22;;
39156;SDS011;24889;42.424;25.604;2023-06-01T05:17:13;17.23;;;7.15;;
39156;SDS011;24889;42.424;25.604;2023-06-01T05:19:38;15.18;;;7.90;;
39156;SDS011;24889;42.424;25.604;2023-06-01T05:22:04;11.88;;;6.50;;
39156;SDS011;24889;42.424;25.604;2023-06-01T05:24:30;15.18;;;6.18;;
39156;SDS011;24889;42.424;25.604;2023-06-01T05:26:55;19.50;;;8.85;;
39156;SDS011;24889;42.424;25.604;2023-06-01T05:29:21;18.15;;;10.43;;
39156;SDS011;24889;42.424;25.604;2023-06-01T05:31:46;28.55;;;8.27;;
39156;SDS011;24889;42.424;25.604;2023-06-01T05:34:13;17.80;;;7.53;;
39156;SDS011;24889;42.424;25.604;2023-06-01T05:36:39;17.02;;;7.07;;
39156;SDS011;24889;42.424;25.604;2023-06-01T05:39:04;22.50;;;8.60;;
39156;SDS011;24889;42.424;25.604;2023-06-01T05:41:30;21.65;;;8.23;;
39156;SDS011;24889;42.424;25.604;2023-06-01T05:46:22;18.42;;;7.82;;
39156;SDS011;24889;42.424;25.604;2023-06-01T05:48:49;19.77;;;7.75;;
39156;SDS011;24889;42.424;25.604;2023-06-01T05:51:15;18.10;;;8.63;;
39156;SDS011;24889;42.424;25.604;2023-06-01T05:53:41;19.25;;;7.28;;
39156;SDS011;24889;42.424;25.604;2023-06-01T05:56:06;19.60;;;6.55;;
39156;SDS011;24889;42.424;25.604;2023-06-01T05:58:32;15.82;;;6.30;;
39156;SDS011;24889;42.424;25.604;2023-06-01T06:00:57;10.25;;;6.45;;
39156;SDS011;24889;42.424;25.604;2023-06-01T06:03:23;12.88;;;7.00;;
39156;SDS011;24889;42.424;25.604;2023-06-01T06:05:48;11.00;;;6.05;;
39156;SDS011;24889;42.424;25.604;2023-06-01T06:08:14;11.52;;;5.50;;
39156;SDS011;24889;42.424;25.604;2023-06-01T06:10:40;19.40;;;5.70;;
39156;SDS011;24889;42.424;25.604;2023-06-01T06:15:31;18.10;;;6.85;;
39156;SDS011;24889;42.424;25.604;2023-06-01T06:20:23;24.40;;;6.40;;
39156;SDS011;24889;42.424;25.604;2023-06-01T06:22:49;11.52;;;5.40;;
39156;SDS011;24889;42.424;25.604;2023-06-01T06:25:16;11.43;;;5.25;;
39156;SDS011;24889;42.424;25.604;2023-06-01T06:32:32;9.30;;;4.75;;
39156;SDS011;24889;42.424;25.604;2023-06-01T06:34:59;9.15;;;4.90;;
39156;SDS011;24889;42.424;25.604;2023-06-01T06:39:50;7.60;;;5.20;;
39156;SDS011;24889;42.424;25.604;2023-06-01T06:42:16;6.82;;;4.70;;
39156;SDS011;24889;42.424;25.604;2023-06-01T06:47:06;7.00;;;4.80;;
39156;SDS011;24889;42.424;25.604;2023-06-01T06:51:57;12.30;;;5.55;;
39156;SDS011;24889;42.424;25.604;2023-06-01T06:59:13;11.63;;;5.47;;
39156;SDS011;24889;42.424;25.604;2023-06-01T07:04:06;8.00;;;5.63;;
39156;SDS011;24889;42.424;25.604;2023-06-01T07:06:32;13.10;;;5.32;;
39156;SDS011;24889;42.424;25.604;2023-06-01T07:08:58;12.60;;;4.65;;
39156;SDS011;24889;42.424;25.604;2023-06-01T07:13:51;8.45;;;5.22;;
39156;SDS011;24889;42.424;25.604;2023-06-01T07:16:22;10.25;;;4.63;;
39156;SDS011;24889;42.424;25.604;2023-06-01T07:18:49;12.13;;;4.82;;
39156;SDS011;24889;42.424;25.604;2023-06-01T07:23:41;10.53;;;5.03;;
39156;SDS011;24889;42.424;25.604;2023-06-01T07:26:07;13.25;;;5.22;;
39156;SDS011;24889;42.424;25.604;2023-06-01T07:30:58;8.73;;;4.78;;
39156;SDS011;24889;42.424;25.604;2023-06-01T07:33:24;7.68;;;4.63;;
39156;SDS011;24889;42.424;25.604;2023-06-01T07:35:50;10.05;;;4.93;;
39156;SDS011;24889;42.424;25.604;2023-06-01T07:38:18;10.88;;;5.55;;
39156;SDS011;24889;42.424;25.604;2023-06-01T07:40:45;7.47;;;4.95;;
39156;SDS011;24889;42.424;25.604;2023-06-01T07:45:36;8.85;;;4.60;;
39156;SDS011;24889;42.424;25.604;2023-06-01T07:48:01;7.55;;;4.65;;
39156;SDS011;24889;42.424;25.604;2023-06-01T07:52:56;9.75;;;4.25;;
39156;SDS011;24889;42.424;25.604;2023-06-01T07:55:22;11.13;;;4.90;;
39156;SDS011;24889;42.424;25.604;2023-06-01T08:00:13;8.57;;;4.00;;
39156;SDS011;24889;42.424;25.604;2023-06-01T08:02:42;9.27;;;4.75;;
39156;SDS011;24889;42.424;25.604;2023-06-01T08:05:10;10.20;;;4.45;;
39156;SDS011;24889;42.424;25.604;2023-06-01T08:07:36;12.68;;;5.32;;
39156;SDS011;24889;42.424;25.604;2023-06-01T08:10:04;9.32;;;4.30;;
39156;SDS011;24889;42.424;25.604;2023-06-01T08:12:30;8.25;;;3.72;;
39156;SDS011;24889;42.424;25.604;2023-06-01T08:14:57;8.73;;;3.50;;
39156;SDS011;24889;42.424;25.604;2023-06-01T08:17:23;9.57;;;3.92;;
39156;SDS011;24889;42.424;25.604;2023-06-01T08:22:15;7.47;;;3.95;;
39156;SDS011;24889;42.424;25.604;2023-06-01T08:24:41;9.50;;;5.18;;
39156;SDS011;24889;42.424;25.604;2023-06-01T08:29:42;5.95;;;3.60;;
39156;SDS011;24889;42.424;25.604;2023-06-01T08:32:09;10.00;;;3.78;;
39156;SDS011;24889;42.424;25.604;2023-06-01T08:37:00;6.18;;;3.42;;
39156;SDS011;24889;42.424;25.604;2023-06-01T08:39:26;7.20;;;4.03;;
39156;SDS011;24889;42.424;25.604;2023-06-01T08:44:35;6.72;;;3.58;;
39156;SDS011;24889;42.424;25.604;2023-06-01T08:47:03;6.45;;;3.47;;
39156;SDS011;24889;42.424;25.604;2023-06-01T08:49:30;7.03;;;3.60;;
39156;SDS011;24889;42.424;25.604;2023-06-01T08:51:59;15.70;;;3.95;;
39156;SDS011;24889;42.424;25.604;2023-06-01T08:54:27;6.70;;;3.78;;
39156;SDS011;24889;42.424;25.604;2023-06-01T08:56:57;8.20;;;3.30;;
39156;SDS011;24889;42.424;25.604;2023-06-01T08:59:24;5.45;;;3.30;;
39156;SDS011;24889;42.424;25.604;2023-06-01T09:04:15;7.43;;;3.17;;
39156;SDS011;24889;42.424;25.604;2023-06-01T09:06:41;7.13;;;3.47;;
39156;SDS011;24889;42.424;25.604;2023-06-01T09:09:07;7.95;;;3.20;;
39156;SDS011;24889;42.424;25.604;2023-06-01T09:11:36;9.60;;;3.85;;
39156;SDS011;24889;42.424;25.604;2023-06-01T09:16:43;7.03;;;3.28;;
39156;SDS011;24889;42.424;25.604;2023-06-01T09:21:34;5.72;;;3.30;;
39156;SDS011;24889;42.424;25.604;2023-06-01T09:26:47;9.23;;;3.30;;
39156;SDS011;24889;42.424;25.604;2023-06-01T09:29:16;10.10;;;3.25;;
39156;SDS011;24889;42.424;25.604;2023-06-01T09:36:44;7.88;;;3.53;;
39156;SDS011;24889;42.424;25.604;2023-06-01T09:39:14;5.45;;;3.13;;
39156;SDS011;24889;42.424;25.604;2023-06-01T09:44:10;8.32;;;3.78;;
39156;SDS011;24889;42.424;25.604;2023-06-01T09:46:46;4.75;;;3.10;;
39156;SDS011;24889;42.424;25.604;2023-06-01T09:49:23;21.38;;;3.65;;
39156;SDS011;24889;42.424;25.604;2023-06-01T09:54:34;7.38;;;3.08;;
39156;SDS011;24889;42.424;25.604;2023-06-01T09:57:02;6.32;;;3.53;;
39156;SDS011;24889;42.424;25.604;2023-06-01T09:59:37;6.72;;;3.60;;
39156;SDS011;24889;42.424;25.604;2023-06-01T10:02:12;8.77;;;3.88;;
39156;SDS011;24889;42.424;25.604;2023-06-01T10:04:53;9.13;;;3.45;;
39156;SDS011;24889;42.424;25.604;2023-06-01T10:07:25;8.48;;;3.47;;
39156;SDS011;24889;42.424;25.604;2023-06-01T10:09:56;4.95;;;3.70;;
39156;SDS011;24889;42.424;25.604;2023-06-01T10:12:24;8.75;;;4.40;;
39156;SDS011;24889;42.424;25.604;2023-06-01T10:14:50;8.73;;;4.00;;
39156;SDS011;24889;42.424;25.604;2023-06-01T10:17:18;8.65;;;3.95;;
39156;SDS011;24889;42.424;25.604;2023-06-01T10:19:44;7.25;;;4.38;;
39156;SDS011;24889;42.424;25.604;2023-06-01T10:22:11;8.07;;;4.07;;
39156;SDS011;24889;42.424;25.604;2023-06-01T10:24:37;11.50;;;4.05;;
39156;SDS011;24889;42.424;25.604;2023-06-01T10:31:58;10.02;;;4.50;;
39156;SDS011;24889;42.424;25.604;2023-06-01T10:41:57;11.57;;;4.10;;
39156;SDS011;24889;42.424;25.604;2023-06-01T10:54:54;11.45;;;4.65;;
39156;SDS011;24889;42.424;25.604;2023-06-01T10:57:24;13.60;;;5.43;;
39156;SDS011;24889;42.424;25.604;2023-06-01T11:05:35;5.57;;;3.83;;
39156;SDS011;24889;42.424;25.604;2023-06-01T11:21:32;6.05;;;3.95;;
39156;SDS011;24889;42.424;25.604;2023-06-01T11:24:03;8.63;;;4.15;;
39156;SDS011;24889;42.424;25.604;2023-06-01T11:26:32;11.02;;;5.05;;
39156;SDS011;24889;42.424;25.604;2023-06-01T11:29:13;8.88;;;4.40;;
39156;SDS011;24889;42.424;25.604;2023-06-01T11:34:39;8.98;;;4.20;;
39156;SDS011;24889;42.424;25.604;2023-06-01T11:37:12;8.98;;;4.57;;
39156;SDS011;24889;42.424;25.604;2023-06-01T11:39:42;7.22;;;4.45;;
39156;SDS011;24889;42.424;25.604;2023-06-01T11:42:11;9.77;;;4.22;;
39156;SDS011;24889;42.424;25.604;2023-06-01T11:44:38;6.93;;;4.57;;
39156;SDS011;24889;42.424;25.604;2023-06-01T11:47:05;7.35;;;3.88;;
39156;SDS011;24889;42.424;25.604;2023-06-01T11:49:42;14.35;;;4.72;;
39156;SDS011;24889;42.424;25.604;2023-06-01T11:52:09;6.32;;;4.03;;
39156;SDS011;24889;42.424;25.604;2023-06-01T11:54:35;7.07;;;4.38;;
39156;SDS011;24889;42.424;25.604;2023-06-01T11:57:02;6.32;;;4.22;;
39156;SDS011;24889;42.424;25.604;2023-06-01T11:59:42;6.47;;;4.18;;
39156;SDS011;24889;42.424;25.604;2023-06-01T12:02:25;7.82;;;4.07;;
39156;SDS011;24889;42.424;25.604;2023-06-01T12:04:58;5.05;;;4.13;;
39156;SDS011;24889;42.424;25.604;2023-06-01T12:07:45;7.55;;;4.28;;
39156;SDS011;24889;42.424;25.604;2023-06-01T12:10:16;7.63;;;4.35;;
39156;SDS011;24889;42.424;25.604;2023-06-01T12:12:44;8.07;;;4.13;;
39156;SDS011;24889;42.424;25.604;2023-06-01T12:15:11;9.85;;;4.80;;
39156;SDS011;24889;42.424;25.604;2023-06-01T12:20:25;11.82;;;4.78;;
39156;SDS011;24889;42.424;25.604;2023-06-01T12:23:01;8.20;;;4.68;;
39156;SDS011;24889;42.424;25.604;2023-06-01T12:25:54;9.27;;;4.32;;
39156;SDS011;24889;42.424;25.604;2023-06-01T12:28:24;6.15;;;3.60;;
39156;SDS011;24889;42.424;25.604;2023-06-01T12:33:39;6.18;;;3.75;;
39156;SDS011;24889;42.424;25.604;2023-06-01T12:36:06;8.68;;;4.25;;
39156;SDS011;24889;42.424;25.604;2023-06-01T12:38:51;5.38;;;3.70;;
39156;SDS011;24889;42.424;25.604;2023-06-01T12:41:17;8.18;;;4.00;;
39156;SDS011;24889;42.424;25.604;2023-06-01T12:43:47;7.47;;;4.22;;
39156;SDS011;24889;42.424;25.604;2023-06-01T12:46:19;6.93;;;4.30;;
39156;SDS011;24889;42.424;25.604;2023-06-01T12:48:50;8.13;;;4.68;;
39156;SDS011;24889;42.424;25.604;2023-06-01T12:51:18;8.40;;;4.40;;
39156;SDS011;24889;42.424;25.604;2023-06-01T12:53:44;10.13;;;4.95;;
39156;SDS011;24889;42.424;25.604;2023-06-01T12:58:36;6.82;;;4.18;;
39156;SDS011;24889;42.424;25.604;2023-06-01T13:01:02;11.38;;;4.55;;
39156;SDS011;24889;42.424;25.604;2023-06-01T13:05:54;5.28;;;3.63;;
39156;SDS011;24889;42.424;25.604;2023-06-01T13:10:45;7.38;;;3.80;;
39156;SDS011;24889;42.424;25.604;2023-06-01T13:13:11;9.85;;;4.65;;
39156;SDS011;24889;42.424;25.604;2023-06-01T13:15:40;6.38;;;3.80;;
39156;SDS011;24889;42.424;25.604;2023-06-01T13:18:07;8.15;;;4.43;;
39156;SDS011;24889;42.424;25.604;2023-06-01T13:20:33;8.93;;;4.28;;
39156;SDS011;24889;42.424;25.604;2023-06-01T13:22:59;7.75;;;4.63;;
39156;SDS011;24889;42.424;25.604;2023-06-01T13:27:51;8.90;;;4.10;;
39156;SDS011;24889;42.424;25.604;2023-06-01T13:30:17;7.82;;;4.30;;
39156;SDS011;24889;42.424;25.604;2023-06-01T13:37:33;5.85;;;3.75;;
39156;SDS011;24889;42.424;25.604;2023-06-01T13:40:01;6.45;;;4.00;;
39156;SDS011;24889;42.424;25.604;2023-06-01T13:42:27;8.55;;;4.43;;
39156;SDS011;24889;42.424;25.604;2023-06-01T13:47:19;6.95;;;4.63;;
39156;SDS011;24889;42.424;25.604;2023-06-01T13:49:45;8.77;;;4.22;;
39156;SDS011;24889;42.424;25.604;2023-06-01T13:54:37;6.57;;;4.05;;
39156;SDS011;24889;42.424;25.604;2023-06-01T13:57:03;5.60;;;3.90;;
39156;SDS011;24889;42.424;25.604;2023-06-01T14:01:56;6.25;;;4.22;;
39156;SDS011;24889;42.424;25.604;2023-06-01T14:04:22;6.43;;;4.55;;
39156;SDS011;24889;42.424;25.604;2023-06-01T14:09:15;11.25;;;5.05;;
39156;SDS011;24889;42.424;25.604;2023-06-01T14:11:43;13.48;;;5.55;;
39156;SDS011;24889;42.424;25.604;2023-06-01T14:19:00;6.37;;;4.57;;
39156;SDS011;24889;42.424;25.604;2023-06-01T14:21:25;6.03;;;4.00;;
39156;SDS011;24889;42.424;25.604;2023-06-01T14:26:16;6.68;;;4.38;;
39156;SDS011;24889;42.424;25.604;2023-06-01T14:28:42;9.65;;;4.53;;
39156;SDS011;24889;42.424;25.604;2023-06-01T14:33:32;6.80;;;4.07;;
39156;SDS011;24889;42.424;25.604;2023-06-01T14:35:58;7.45;;;4.45;;
39156;SDS011;24889;42.424;25.604;2023-06-01T14:38:23;7.28;;;4.57;;
39156;SDS011;24889;42.424;25.604;2023-06-01T14:40:49;7.78;;;4.28;;
39156;SDS011;24889;42.424;25.604;2023-06-01T14:48:05;6.37;;;4.67;;
39156;SDS011;24889;42.424;25.604;2023-06-01T14:50:31;8.50;;;4.30;;
39156;SDS011;24889;42.424;25.604;2023-06-01T14:52:56;6.03;;;4.15;;
39156;SDS011;24889;42.424;25.604;2023-06-01T14:55:24;7.32;;;4.55;;
39156;SDS011;24889;42.424;25.604;2023-06-01T14:57:51;9.48;;;4.30;;
39156;SDS011;24889;42.424;25.604;2023-06-01T15:02:43;6.15;;;4.32;;
39156;SDS011;24889;42.424;25.604;2023-06-01T15:05:10;9.50;;;4.38;;
39156;SDS011;24889;42.424;25.604;2023-06-01T15:10:01;6.90;;;4.47;;
39156;SDS011;24889;42.424;25.604;2023-06-01T15:12:27;6.75;;;4.25;;
39156;SDS011;24889;42.424;25.604;2023-06-01T15:17:18;6.55;;;3.90;;
39156;SDS011;24889;42.424;25.604;2023-06-01T15:22:10;6.47;;;3.85;;
39156;SDS011;24889;42.424;25.604;2023-06-01T15:24:36;6.15;;;3.95;;
39156;SDS011;24889;42.424;25.604;2023-06-01T15:27:02;6.25;;;4.53;;
39156;SDS011;24889;42.424;25.604;2023-06-01T15:31:54;5.53;;;3.90;;
39156;SDS011;24889;42.424;25.604;2023-06-01T15:39:10;5.77;;;4.13;;
39156;SDS011;24889;42.424;25.604;2023-06-01T15:44:01;10.10;;;4.60;;
39156;SDS011;24889;42.424;25.604;2023-06-01T15:46:26;7.90;;;4.38;;
39156;SDS011;24889;42.424;25.604;2023-06-01T15:48:52;5.30;;;4.22;;
39156;SDS011;24889;42.424;25.604;2023-06-01T15:51:17;6.80;;;4.03;;
39156;SDS011;24889;42.424;25.604;2023-06-01T15:53:43;12.73;;;4.32;;
39156;SDS011;24889;42.424;25.604;2023-06-01T15:58:33;7.50;;;4.23;;
39156;SDS011;24889;42.424;25.604;2023-06-01T16:03:25;7.30;;;4.30;;
39156;SDS011;24889;42.424;25.604;2023-06-01T16:05:51;7.15;;;4.78;;
39156;SDS011;24889;42.424;25.604;2023-06-01T16:10:42;6.72;;;4.22;;
39156;SDS011;24889;42.424;25.604;2023-06-01T16:13:07;6.10;;;3.80;;
39156;SDS011;24889;42.424;25.604;2023-06-01T16:17:58;8.10;;;4.37;;
39156;SDS011;24889;42.424;25.604;2023-06-01T16:22:49;5.63;;;3.97;;
39156;SDS011;24889;42.424;25.604;2023-06-01T16:25:14;6.82;;;4.15;;
39156;SDS011;24889;42.424;25.604;2023-06-01T16:27:40;7.25;;;4.50;;
39156;SDS011;24889;42.424;25.604;2023-06-01T16:30:05;10.23;;;5.70;;
39156;SDS011;24889;42.424;25.604;2023-06-01T16:32:31;8.95;;;5.03;;
39156;SDS011;24889;42.424;25.604;2023-06-01T16:37:22;7.87;;;5.57;;
39156;SDS011;24889;42.424;25.604;2023-06-01T16:39:48;10.18;;;4.90;;
39156;SDS011;24889;42.424;25.604;2023-06-01T16:42:13;10.68;;;5.80;;
39156;SDS011;24889;42.424;25.604;2023-06-01T16:44:38;8.77;;;5.55;;
39156;SDS011;24889;42.424;25.604;2023-06-01T16:47:04;10.02;;;5.65;;
39156;SDS011;24889;42.424;25.604;2023-06-01T16:49:30;11.02;;;5.30;;
39156;SDS011;24889;42.424;25.604;2023-06-01T16:51:55;9.13;;;5.32;;
39156;SDS011;24889;42.424;25.604;2023-06-01T16:54:21;9.07;;;5.68;;
39156;SDS011;24889;42.424;25.604;2023-06-01T16:56:46;10.55;;;5.53;;
39156;SDS011;24889;42.424;25.604;2023-06-01T16:59:12;9.27;;;5.32;;
39156;SDS011;24889;42.424;25.604;2023-06-01T17:01:38;13.52;;;5.57;;
39156;SDS011;24889;42.424;25.604;2023-06-01T17:04:03;9.60;;;5.95;;
39156;SDS011;24889;42.424;25.604;2023-06-01T17:08:56;11.82;;;5.18;;
39156;SDS011;24889;42.424;25.604;2023-06-01T17:11:22;12.07;;;6.05;;
39156;SDS011;24889;42.424;25.604;2023-06-01T17:13:49;8.05;;;5.68;;
39156;SDS011;24889;42.424;25.604;2023-06-01T17:16:14;11.27;;;6.22;;
39156;SDS011;24889;42.424;25.604;2023-06-01T17:18:40;8.77;;;5.18;;
39156;SDS011;24889;42.424;25.604;2023-06-01T17:21:05;8.65;;;5.53;;
39156;SDS011;24889;42.424;25.604;2023-06-01T17:23:31;8.20;;;5.00;;
39156;SDS011;24889;42.424;25.604;2023-06-01T17:25:56;9.18;;;5.25;;
39156;SDS011;24889;42.424;25.604;2023-06-01T17:28:22;9.52;;;5.15;;
39156;SDS011;24889;42.424;25.604;2023-06-01T17:30:48;9.65;;;5.28;;
39156;SDS011;24889;42.424;25.604;2023-06-01T17:33:14;13.70;;;5.60;;
39156;SDS011;24889;42.424;25.604;2023-06-01T17:35:39;11.35;;;5.43;;
39156;SDS011;24889;42.424;25.604;2023-06-01T17:38:05;7.28;;;4.40;;
39156;SDS011;24889;42.424;25.604;2023-06-01T17:40:31;11.40;;;5.45;;
39156;SDS011;24889;42.424;25.604;2023-06-01T17:42:56;10.52;;;5.68;;
39156;SDS011;24889;42.424;25.604;2023-06-01T17:45:22;9.95;;;5.00;;
39156;SDS011;24889;42.424;25.604;2023-06-01T17:47:47;11.32;;;5.85;;
39156;SDS011;24889;42.424;25.604;2023-06-01T17:50:12;14.00;;;6.32;;
39156;SDS011;24889;42.424;25.604;2023-06-01T17:52:38;11.63;;;5.78;;
39156;SDS011;24889;42.424;25.604;2023-06-01T17:55:04;12.63;;;6.30;;
39156;SDS011;24889;42.424;25.604;2023-06-01T17:57:29;13.63;;;6.25;;
39156;SDS011;24889;42.424;25.604;2023-06-01T17:59:55;12.25;;;6.85;;
39156;SDS011;24889;42.424;25.604;2023-06-01T18:02:20;9.88;;;6.18;;